createdAt,value
2018-03-02T00:00:04.932Z,50
2018-03-02T00:15:04.728Z,50
2018-03-02T00:30:05.088Z,50
2018-03-02T00:45:05.039Z,49
2018-03-02T01:00:05.635Z,50
2018-03-02T01:15:08.143Z,49
2018-03-02T01:30:06.515Z,49
2018-03-02T01:45:04.480Z,50
2018-03-02T02:00:05.374Z,49
2018-03-02T02:15:06.106Z,49
2018-03-02T02:30:04.995Z,50
2018-03-02T02:45:05.165Z,49
2018-03-02T03:00:05.281Z,50
2018-03-02T03:15:05.373Z,50
2018-03-02T03:30:05.747Z,51
2018-03-02T03:45:04.772Z,49
2018-03-02T04:00:04.741Z,50
2018-03-02T04:15:04.826Z,51
2018-03-02T04:30:05.236Z,50
2018-03-02T04:45:05.038Z,55
2018-03-02T05:00:04.468Z,51
2018-03-02T05:15:04.873Z,50
2018-03-02T05:30:05.693Z,51
2018-03-02T05:45:05.692Z,52
2018-03-02T06:00:15.332Z,52
2018-03-02T06:15:04.791Z,52
2018-03-02T06:30:07.535Z,53
2018-03-02T06:45:04.394Z,55
2018-03-02T07:00:05.842Z,53
2018-03-02T07:15:08.270Z,54
2018-03-02T07:30:05.519Z,52
2018-03-02T07:45:04.492Z,51
2018-03-02T08:00:04.380Z,52
2018-03-02T08:15:04.646Z,51
2018-03-02T08:30:05.859Z,53
2018-03-02T08:45:04.767Z,52
2018-03-02T09:00:04.773Z,51
2018-03-02T09:15:04.887Z,52
2018-03-02T09:30:05.409Z,52
2018-03-02T09:45:04.435Z,53
2018-03-02T10:00:06.150Z,50
2018-03-02T10:15:05.239Z,50
2018-03-02T10:30:04.736Z,51
2018-03-02T10:45:04.960Z,52
2018-03-02T11:00:04.887Z,49
2018-03-02T11:15:04.380Z,50
2018-03-02T11:30:04.546Z,52
2018-03-02T11:45:05.636Z,51
2018-03-02T12:00:08.361Z,53
2018-03-02T12:15:04.588Z,52
2018-03-02T12:30:05.033Z,52
2018-03-02T12:45:20.848Z,52
2018-03-02T13:00:05.461Z,51
2018-03-02T13:15:04.688Z,52
2018-03-02T13:30:04.895Z,52
2018-03-02T13:45:04.814Z,52
2018-03-02T14:00:04.754Z,54
2018-03-02T14:15:04.719Z,52
2018-03-02T14:30:05.462Z,53
2018-03-02T14:45:05.473Z,54
2018-03-02T15:00:04.777Z,56
2018-03-02T15:15:07.864Z,55
2018-03-02T15:30:05.661Z,57
2018-03-02T15:45:05.626Z,59
2018-03-02T16:00:05.898Z,58
2018-03-02T16:15:05.173Z,55
2018-03-02T16:30:20.301Z,62
2018-03-02T16:45:07.058Z,63
2018-03-02T17:00:06.273Z,65
2018-03-02T17:15:05.322Z,59
2018-03-02T17:30:08.121Z,64
2018-03-02T17:45:05.492Z,64
2018-03-02T18:00:06.759Z,62
2018-03-02T18:15:04.881Z,58
2018-03-02T18:30:06.607Z,57
2018-03-02T18:45:04.730Z,57
2018-03-02T19:00:05.146Z,57
2018-03-02T19:15:05.050Z,60
2018-03-02T19:30:05.627Z,57
2018-03-02T19:45:04.960Z,56
2018-03-02T20:00:07.891Z,55
2018-03-02T20:15:07.821Z,57
2018-03-02T20:30:04.776Z,57
2018-03-02T20:45:04.856Z,56
2018-03-02T21:00:04.966Z,54
2018-03-02T21:15:04.570Z,55
2018-03-02T21:30:04.876Z,58
2018-03-02T21:45:04.915Z,54
2018-03-02T22:00:05.066Z,53
2018-03-02T22:15:05.054Z,55
2018-03-02T22:30:05.238Z,49
2018-03-02T22:45:05.178Z,54
2018-03-02T23:00:05.168Z,54
2018-03-02T23:15:05.269Z,52
2018-03-02T23:30:04.554Z,50
2018-03-02T23:45:05.060Z,57
